Time;durP1;ratioP1;P1;durP2;ratioP2;P2;SDS_P1;SDS_P2;PMS_P1;PMS_P2;Temp;Humidity;BMP_temperature;BMP_pressure;BME280_temperature;BME280_humidity;BME280_pressure;Samples;Min_cycle;Max_cycle;Signal;HPM_P1;HPM_P2
2022/09/19 05:34:13;;;;;;;;;;;;;;;10.80;74.68;99724.84;4962488;28;1403;-67
2022/09/19 05:36:39;;;;;;;;;;;;;;;10.97;73.62;99722.38;4975474;28;843;-67
2022/09/19 05:39:06;;;;;;;;;;;;;;;11.13;72.44;99725.38;4975151;28;876;-68
2022/09/19 05:41:34;;;;;;;;;;;;;;;11.31;71.72;99716.94;4957652;28;1918;-67
2022/09/19 05:44:01;;;;;;;;;;;;;;;11.54;70.65;99718.28;4975095;28;821;-67
2022/09/19 05:46:27;;;;;;;;;;;;;;;11.79;69.39;99721.56;4974996;28;816;-67
2022/09/19 05:48:54;;;;;;;;;;;;;;;12.00;68.35;99709.50;4975193;28;923;-67
2022/09/19 05:51:21;;;;;;;;;;;;;;;12.28;67.71;99713.09;4957611;28;1277;-67
2022/09/19 05:53:54;;;;;;;;;;;;;;;12.58;66.03;99717.06;4974848;28;830;-67
2022/09/19 05:56:22;;;;;;;;;;;;;;;12.88;63.54;99718.97;4974903;28;860;-68
2022/09/19 05:58:51;;;;;;;;;;;;;;;13.15;61.96;99718.16;4974803;28;833;-68
2022/09/19 06:01:18;;;;;;;;;;;;;;;13.34;60.58;99723.00;4974542;28;1958;-68
2022/09/19 06:03:45;;;;;;;;;;;;;;;13.56;60.43;99731.72;4975027;28;808;-68
2022/09/19 06:06:14;;;;;;;;;;;;;;;13.78;59.06;99734.09;4974610;28;868;-67
2022/09/19 06:08:42;;;;;;;;;;;;;;;13.90;58.06;99727.94;4974625;28;868;-68
2022/09/19 06:11:09;;;;;;;;;;;;;;;13.99;57.84;99724.56;4974572;28;899;-67
2022/09/19 06:16:22;;;;;;;;;;;;;;;14.66;55.31;99727.94;4974719;28;651;-67
2022/09/19 06:18:49;;;;;;;;;;;;;;;15.27;53.79;99731.25;4974473;28;848;-67
2022/09/19 06:21:15;;;;;;;;;;;;;;;15.73;52.20;99737.66;4974363;28;1948;-67
2022/09/19 06:23:42;;;;;;;;;;;;;;;16.04;50.92;99731.63;4974367;28;813;-67
2022/09/19 06:26:11;;;;;;;;;;;;;;;16.18;50.44;99731.22;4974197;28;828;-67
2022/09/19 06:28:38;;;;;;;;;;;;;;;16.18;50.85;99733.22;4974205;28;832;-68
2022/09/19 06:31:08;;;;;;;;;;;;;;;16.37;50.62;99723.13;4956666;28;1389;-67
2022/09/19 06:33:34;;;;;;;;;;;;;;;16.73;49.43;99725.59;4973925;28;1348;-68
2022/09/19 06:36:01;;;;;;;;;;;;;;;17.17;48.00;99728.59;4974151;28;825;-68
2022/09/19 06:38:30;;;;;;;;;;;;;;;17.38;47.41;99729.09;4973919;28;840;-66
2022/09/19 06:40:58;;;;;;;;;;;;;;;17.44;46.61;99730.88;4973973;28;1981;-68
2022/09/19 06:43:26;;;;;;;;;;;;;;;17.63;46.53;99731.81;4973921;28;903;-68
2022/09/19 06:45:53;;;;;;;;;;;;;;;17.72;46.40;99736.72;4973890;28;891;-68
2022/09/19 06:48:20;;;;;;;;;;;;;;;17.72;46.16;99733.91;4973885;28;849;-68
2022/09/19 06:50:47;;;;;;;;;;;;;;;17.88;45.08;99728.19;4973832;28;884;-68
2022/09/19 06:53:15;;;;;;;;;;;;;;;18.37;43.80;99729.59;4973918;28;797;-68
2022/09/19 06:55:42;;;;;;;;;;;;;;;18.92;42.78;99724.22;4973642;28;856;-68
2022/09/19 06:58:09;;;;;;;;;;;;;;;19.11;41.80;99724.28;4973666;28;809;-67
2022/09/19 07:00:38;;;;;;;;;;;;;;;19.04;42.27;99719.00;4973511;28;907;-68
2022/09/19 07:03:09;;;;;;;;;;;;;;;19.17;41.82;99726.00;4973520;28;1941;-67
2022/09/19 07:05:37;;;;;;;;;;;;;;;19.27;41.76;99721.22;4974133;28;828;-67
2022/09/19 07:08:04;;;;;;;;;;;;;;;19.17;40.89;99720.41;4973616;28;868;-68
2022/09/19 07:10:29;;;;;;;;;;;;;;;19.18;41.01;99721.19;4973090;28;883;-68
2022/09/19 07:12:59;;;;;;;;;;;;;;;19.34;40.04;99723.72;4973819;28;1295;-68
2022/09/19 07:15:25;;;;;;;;;;;;;;;19.38;39.71;99721.53;4973520;28;816;-67
2022/09/19 07:17:56;;;;;;;;;;;;;;;19.32;39.98;99717.78;4973581;28;857;-67
2022/09/19 07:20:23;;;;;;;;;;;;;;;19.70;38.72;99722.22;4973426;28;841;-68
2022/09/19 07:23:08;;;;;;;;;;;;;;;20.25;38.75;99718.56;4970804;28;1894;-68
2022/09/19 07:25:35;;;;;;;;;;;;;;;21.20;36.23;99714.41;4954206;29;812;-68
2022/09/19 07:28:03;;;;;;;;;;;;;;;22.25;35.20;99709.84;4954070;29;832;-68
2022/09/19 07:30:30;;;;;;;;;;;;;;;23.39;34.16;99710.28;4953845;29;913;-68
2022/09/19 07:32:59;;;;;;;;;;;;;;;23.97;32.17;99716.09;4953735;28;1221;-69
2022/09/19 07:35:27;;;;;;;;;;;;;;;23.95;31.30;99710.16;4953981;29;836;-69
2022/09/19 07:37:54;;;;;;;;;;;;;;;24.34;31.27;99706.91;4953246;28;867;-68
2022/09/19 07:40:21;;;;;;;;;;;;;;;24.54;30.93;99708.94;4953790;29;907;-70
2022/09/19 07:42:50;;;;;;;;;;;;;;;24.83;30.65;99708.59;4953596;29;1911;-70
2022/09/19 07:45:17;;;;;;;;;;;;;;;25.22;29.51;99702.44;4953658;29;841;-69
2022/09/19 07:47:45;;;;;;;;;;;;;;;24.99;29.56;99715.66;4936367;29;1175;-70
2022/09/19 07:50:13;;;;;;;;;;;;;;;25.26;29.61;99716.31;4953611;29;892;-70
2022/09/19 07:52:41;;;;;;;;;;;;;;;25.24;28.50;99707.56;4953553;29;912;-71
2022/09/19 07:55:10;;;;;;;;;;;;;;;24.95;27.79;99715.09;4936333;29;1226;-75
2022/09/19 07:57:36;;;;;;;;;;;;;;;24.60;28.01;99701.25;4953530;29;896;-71
2022/09/19 08:00:04;;;;;;;;;;;;;;;24.65;28.13;99700.53;4952076;28;1241;-72
2022/09/19 08:02:31;;;;;;;;;;;;;;;24.44;28.17;99697.00;4953565;29;1890;-70
2022/09/19 08:04:57;;;;;;;;;;;;;;;23.64;27.99;99703.13;4953417;29;868;-70
2022/09/19 08:07:24;;;;;;;;;;;;;;;23.46;27.89;99700.63;4953382;29;876;-68
2022/09/19 08:09:51;;;;;;;;;;;;;;;23.63;28.43;99707.22;4953706;29;868;-69
2022/09/19 08:12:18;;;;;;;;;;;;;;;24.04;27.84;99695.88;4952077;29;1212;-70
2022/09/19 08:14:44;;;;;;;;;;;;;;;24.53;28.68;99698.88;4953304;29;817;-70
2022/09/19 08:17:11;;;;;;;;;;;;;;;24.99;26.96;99700.75;4953348;29;868;-71
2022/09/19 08:19:39;;;;;;;;;;;;;;;24.65;27.21;99684.34;4952668;29;845;-70
2022/09/19 08:22:06;;;;;;;;;;;;;;;24.37;27.08;99694.63;4953143;29;1956;-71
2022/09/19 08:24:32;;;;;;;;;;;;;;;24.54;27.64;99691.97;4952717;29;868;-71
2022/09/19 08:26:59;;;;;;;;;;;;;;;24.95;27.21;99688.91;4953004;29;837;-69
2022/09/19 08:29:27;;;;;;;;;;;;;;;24.81;27.03;99687.78;4953339;29;856;-70
2022/09/19 08:31:53;;;;;;;;;;;;;;;24.66;27.32;99679.47;4953512;29;952;-69
2022/09/19 08:34:20;;;;;;;;;;;;;;;24.80;26.88;99674.94;4953065;28;1306;-71
2022/09/19 08:36:47;;;;;;;;;;;;;;;24.67;26.08;99683.06;4952862;29;1505;-69
2022/09/19 08:39:13;;;;;;;;;;;;;;;24.27;27.29;99677.09;4953079;29;857;-70
2022/09/19 08:41:58;;;;;;;;;;;;;;;24.49;27.38;99673.69;4952984;29;1977;-71
2022/09/19 08:44:27;;;;;;;;;;;;;;;24.71;26.44;99669.47;4953138;29;888;-69
2022/09/19 08:47:07;;;;;;;;;;;;;;;24.50;26.58;99663.94;4953041;29;905;-69
2022/09/19 08:49:38;;;;;;;;;;;;;;;24.46;26.09;99664.13;4953566;28;853;-70
2022/09/19 08:52:23;;;;;;;;;;;;;;;24.48;26.58;99663.66;4956739;29;852;-71
2022/09/19 08:54:51;;;;;;;;;;;;;;;24.58;27.01;99658.59;4956674;29;868;-69
2022/09/19 08:57:27;;;;;;;;;;;;;;;24.78;26.73;99661.31;4956616;29;849;-71
2022/09/19 08:59:58;;;;;;;;;;;;;;;24.69;26.80;99653.03;4956471;29;928;-70
2022/09/19 09:02:37;;;;;;;;;;;;;;;24.33;26.60;99649.66;4956430;29;1899;-70
2022/09/19 09:05:04;;;;;;;;;;;;;;;23.81;28.12;99649.72;4956511;29;853;-71
2022/09/19 09:07:44;;;;;;;;;;;;;;;23.46;27.79;99647.78;4956380;29;903;-68
2022/09/19 09:10:18;;;;;;;;;;;;;;;23.44;28.09;99647.50;4956983;29;837;-70
2022/09/19 09:12:47;;;;;;;;;;;;;;;23.55;27.66;99649.69;4956379;29;848;-69
2022/09/19 09:15:20;;;;;;;;;;;;;;;23.50;27.32;99647.59;4956288;29;880;-70
2022/09/19 09:17:50;;;;;;;;;;;;;;;23.40;25.97;99639.25;4939059;29;1364;-68
2022/09/19 09:20:20;;;;;;;;;;;;;;;23.41;26.92;99634.41;4938892;29;1245;-70
2022/09/19 09:22:49;;;;;;;;;;;;;;;23.38;27.15;99626.94;4956661;29;1945;-70
2022/09/19 09:25:19;;;;;;;;;;;;;;;23.42;26.83;99631.09;4956394;29;892;-71
2022/09/19 09:28:05;;;;;;;;;;;;;;;23.60;27.39;99623.59;4938841;29;1393;-72
2022/09/19 09:30:37;;;;;;;;;;;;;;;23.65;27.63;99617.22;4955934;28;1303;-71
2022/09/19 09:33:24;;;;;;;;;;;;;;;23.53;27.30;99618.38;4955744;29;1832;-70
2022/09/19 09:35:58;;;;;;;;;;;;;;;23.61;27.28;99623.09;4934951;29;1328;-70
2022/09/19 09:38:34;;;;;;;;;;;;;;;23.74;27.18;99614.22;4955938;29;817;-71
2022/09/19 09:44:15;;;;;;;;;;;;;;;23.94;28.05;99618.28;4955771;29;635;-69
2022/09/19 09:46:48;;;;;;;;;;;;;;;24.13;27.09;99608.19;4955768;29;904;-71
2022/09/19 09:49:17;;;;;;;;;;;;;;;24.34;26.84;99611.66;4955667;29;864;-71
2022/09/19 09:52:03;;;;;;;;;;;;;;;24.06;25.77;99614.28;4955626;29;824;-71
2022/09/19 09:57:36;;;;;;;;;;;;;;;23.57;26.53;99599.97;4955439;29;710;-70
2022/09/19 10:05:53;;;;;;;;;;;;;;;23.60;25.93;99598.22;4955889;29;632;-71
2022/09/19 10:08:42;;;;;;;;;;;;;;;23.55;26.20;99596.09;4955398;29;848;-70
2022/09/19 10:11:14;;;;;;;;;;;;;;;23.53;26.68;99595.81;4937995;29;1178;-69
2022/09/19 10:13:48;;;;;;;;;;;;;;;23.72;25.73;99601.91;4955273;29;841;-71
2022/09/19 10:16:17;;;;;;;;;;;;;;;23.84;26.03;99587.41;4955217;29;876;-71
2022/09/19 10:18:56;;;;;;;;;;;;;;;24.01;25.74;99583.97;4955148;29;891;-70
2022/09/19 10:21:23;;;;;;;;;;;;;;;24.02;26.01;99585.50;4955045;29;1906;-70
2022/09/19 10:23:50;;;;;;;;;;;;;;;24.13;25.32;99587.66;4955175;29;821;-68
2022/09/19 10:26:22;;;;;;;;;;;;;;;24.21;25.11;99583.09;4954850;29;872;-70
2022/09/19 10:28:53;;;;;;;;;;;;;;;24.35;24.37;99579.34;4954940;29;845;-71
2022/09/19 10:31:23;;;;;;;;;;;;;;;24.30;24.78;99582.88;4955109;29;912;-70
2022/09/19 10:33:50;;;;;;;;;;;;;;;24.51;24.76;99569.44;4954533;29;1215;-70
2022/09/19 10:36:31;;;;;;;;;;;;;;;24.52;24.18;99568.19;4954683;29;1301;-72
2022/09/19 10:38:59;;;;;;;;;;;;;;;24.42;24.70;99566.78;4954774;29;853;-70
2022/09/19 10:41:27;;;;;;;;;;;;;;;24.47;24.40;99563.22;4937502;29;1919;-68
2022/09/19 10:43:57;;;;;;;;;;;;;;;24.27;24.67;99564.13;4954631;29;846;-68
2022/09/19 10:46:44;;;;;;;;;;;;;;;24.28;24.89;99573.38;4954878;29;853;-69
2022/09/19 10:49:19;;;;;;;;;;;;;;;24.30;24.55;99560.28;4954429;29;1269;-68
2022/09/19 10:51:47;;;;;;;;;;;;;;;24.46;24.64;99559.63;4937305;29;1313;-71
2022/09/19 10:54:22;;;;;;;;;;;;;;;24.65;24.33;99553.59;4954473;29;810;-70
2022/09/19 10:56:49;;;;;;;;;;;;;;;24.85;24.47;99555.47;4954281;29;872;-71
2022/09/19 10:59:25;;;;;;;;;;;;;;;24.89;24.01;99547.53;4954449;29;885;-71
2022/09/19 11:02:24;;;;;;;;;;;;;;;24.84;24.27;99554.72;4954900;29;1958;-71
2022/09/19 11:05:03;;;;;;;;;;;;;;;25.20;24.16;99549.47;4932363;29;1413;-71
2022/09/19 11:07:32;;;;;;;;;;;;;;;25.37;22.92;99545.88;4954280;29;782;-71
2022/09/19 11:09:59;;;;;;;;;;;;;;;25.37;22.55;99538.19;4936893;29;1198;-69
2022/09/19 11:12:27;;;;;;;;;;;;;;;25.37;23.22;99534.56;4953473;28;871;-69
2022/09/19 11:14:57;;;;;;;;;;;;;;;25.67;23.63;99529.22;4954051;29;888;-70
2022/09/19 11:17:30;;;;;;;;;;;;;;;25.81;21.89;99533.06;4954088;29;821;-71
2022/09/19 11:20:16;;;;;;;;;;;;;;;25.85;21.94;99523.00;4954307;29;829;-70
2022/09/19 11:22:50;;;;;;;;;;;;;;;25.55;21.64;99527.66;4953881;29;1883;-73
2022/09/19 11:25:26;;;;;;;;;;;;;;;25.38;22.38;99519.91;4954461;29;797;-72
2022/09/19 11:27:56;;;;;;;;;;;;;;;25.54;22.79;99520.44;4936864;29;1222;-70
2022/09/19 11:30:25;;;;;;;;;;;;;;;25.70;22.77;99514.03;4953799;29;1025;-70
2022/09/19 11:33:18;;;;;;;;;;;;;;;25.89;22.58;99507.88;4954005;29;864;-69
2022/09/19 11:35:44;;;;;;;;;;;;;;;25.89;22.56;99494.47;4949267;29;1064;-71
2022/09/19 11:38:32;;;;;;;;;;;;;;;25.99;22.30;99500.63;4953760;29;916;-71
2022/09/19 11:41:02;;;;;;;;;;;;;;;26.28;21.20;99490.78;4954165;29;1942;-71
2022/09/19 11:43:35;;;;;;;;;;;;;;;26.30;20.44;99493.88;4954462;29;825;-72
2022/09/19 11:46:08;;;;;;;;;;;;;;;26.27;20.69;99500.59;4953632;29;986;-71
2022/09/19 11:48:44;;;;;;;;;;;;;;;26.40;20.85;99503.63;4953629;29;805;-73
2022/09/19 11:51:16;;;;;;;;;;;;;;;26.06;20.30;99485.97;4936622;29;1336;-70
2022/09/19 11:53:56;;;;;;;;;;;;;;;26.34;20.38;99479.47;4953579;29;845;-70
2022/09/19 11:56:36;;;;;;;;;;;;;;;26.57;20.01;99491.50;4936185;29;1202;-69
2022/09/19 11:59:03;;;;;;;;;;;;;;;26.65;19.88;99487.59;4953775;29;837;-69
2022/09/19 12:01:48;;;;;;;;;;;;;;;27.01;19.56;99476.34;4936321;29;2045;-71
2022/09/19 12:04:23;;;;;;;;;;;;;;;27.25;19.30;99477.75;4953414;29;1255;-72
2022/09/19 12:07:10;;;;;;;;;;;;;;;27.29;19.46;99478.25;4953472;29;840;-72
2022/09/19 12:09:43;;;;;;;;;;;;;;;27.67;19.20;99473.56;4953427;29;1072;-70
2022/09/19 12:12:11;;;;;;;;;;;;;;;27.99;18.79;99472.22;4953318;29;880;-71
2022/09/19 12:14:50;;;;;;;;;;;;;;;28.19;18.44;99474.59;4953673;29;785;-72
2022/09/19 12:17:25;;;;;;;;;;;;;;;28.15;18.48;99465.63;4953307;29;908;-72
2022/09/19 12:19:57;;;;;;;;;;;;;;;28.07;17.88;99465.44;4953345;29;857;-72
2022/09/19 12:22:27;;;;;;;;;;;;;;;28.26;18.10;99468.31;4953140;29;1963;-71
2022/09/19 12:25:02;;;;;;;;;;;;;;;28.66;17.36;99462.19;4955662;28;825;-75
2022/09/19 12:27:44;;;;;;;;;;;;;;;28.39;17.41;99461.97;4957187;29;857;-70
2022/09/19 12:30:13;;;;;;;;;;;;;;;28.43;17.63;99458.84;4957099;29;797;-72
2022/09/19 12:32:47;;;;;;;;;;;;;;;27.89;16.49;99457.63;4957449;29;922;-71
2022/09/19 12:35:18;;;;;;;;;;;;;;;27.76;17.53;99458.25;4956838;28;1451;-71
2022/09/19 12:37:51;;;;;;;;;;;;;;;27.67;17.71;99452.88;4957271;29;829;-72
2022/09/19 12:40:26;;;;;;;;;;;;;;;27.61;17.83;99457.84;4957017;29;829;-70
2022/09/19 12:43:11;;;;;;;;;;;;;;;28.22;17.42;99447.19;4956808;29;1918;-72
2022/09/19 12:45:42;;;;;;;;;;;;;;;28.07;17.18;99454.06;4939596;29;1258;-73
2022/09/19 12:48:15;;;;;;;;;;;;;;;27.53;17.95;99445.56;4939590;29;1182;-70
2022/09/19 12:50:49;;;;;;;;;;;;;;;27.53;17.78;99449.16;4957180;29;818;-75
2022/09/19 12:53:35;;;;;;;;;;;;;;;27.38;18.22;99445.94;4956810;29;880;-73
2022/09/19 12:59:24;;;;;;;;;;;;;;;26.52;18.23;99441.25;4956792;29;675;-70
2022/09/19 13:01:56;;;;;;;;;;;;;;;26.33;18.99;99446.75;4939343;29;1945;-72
2022/09/19 13:04:41;;;;;;;;;;;;;;;26.26;19.45;99436.72;4956522;29;829;-72
2022/09/19 13:07:31;;;;;;;;;;;;;;;26.52;19.06;99449.75;4956555;29;1317;-71
2022/09/19 13:10:01;;;;;;;;;;;;;;;26.55;19.03;99446.66;4956609;29;899;-70
2022/09/19 13:12:37;;;;;;;;;;;;;;;26.61;19.15;99435.34;4956515;29;797;-69
2022/09/19 13:15:12;;;;;;;;;;;;;;;27.21;19.64;99437.53;4956319;29;821;-68
2022/09/19 13:23:35;;;;;;;;;;;;;;;26.77;19.64;99430.84;4956087;29;1882;-70
2022/09/19 13:26:17;;;;;;;;;;;;;;;26.51;19.50;99434.81;4956533;29;837;-69
2022/09/19 13:28:45;;;;;;;;;;;;;;;26.70;19.22;99429.34;4956113;29;833;-70
2022/09/19 13:31:17;;;;;;;;;;;;;;;26.48;19.48;99427.38;4955942;29;1386;-70
2022/09/19 13:33:45;;;;;;;;;;;;;;;26.46;19.68;99418.63;4956086;29;1232;-69
2022/09/19 13:36:14;;;;;;;;;;;;;;;26.67;20.16;99421.88;4955436;28;892;-69
2022/09/19 13:38:43;;;;;;;;;;;;;;;26.95;19.31;99430.22;4938647;29;1199;-69
2022/09/19 13:41:28;;;;;;;;;;;;;;;26.99;19.01;99425.06;4938609;29;1978;-70
2022/09/19 13:44:09;;;;;;;;;;;;;;;27.11;19.33;99420.06;4956025;29;832;-70
2022/09/19 13:46:54;;;;;;;;;;;;;;;26.93;19.33;99426.34;4955733;29;821;-69
2022/09/19 13:49:26;;;;;;;;;;;;;;;27.01;19.40;99416.78;4955735;29;884;-69
2022/09/19 13:52:03;;;;;;;;;;;;;;;26.83;19.70;99418.19;4955737;29;829;-70
2022/09/19 13:54:33;;;;;;;;;;;;;;;26.79;20.02;99408.44;4955537;29;861;-69
2022/09/19 13:57:06;;;;;;;;;;;;;;;27.03;19.74;99407.72;4955602;29;829;-70
2022/09/19 13:59:45;;;;;;;;;;;;;;;26.83;19.68;99409.69;4955467;29;876;-70
2022/09/19 14:02:11;;;;;;;;;;;;;;;26.52;20.00;99407.25;4938146;29;1981;-73
2022/09/19 14:05:01;;;;;;;;;;;;;;;26.28;20.33;99402.97;4955423;29;797;-70
2022/09/19 14:07:31;;;;;;;;;;;;;;;26.31;20.22;99409.66;4955377;29;890;-69
2022/09/19 14:10:04;;;;;;;;;;;;;;;26.13;20.45;99405.38;4955257;29;879;-70
2022/09/19 14:12:37;;;;;;;;;;;;;;;26.28;21.27;99397.31;4955295;29;837;-68
2022/09/19 14:15:24;;;;;;;;;;;;;;;26.44;20.79;99387.97;4955300;29;863;-70
2022/09/19 14:18:13;;;;;;;;;;;;;;;26.24;21.50;99391.94;4955469;29;813;-70
2022/09/19 14:21:03;;;;;;;;;;;;;;;26.16;21.56;99395.81;4935596;29;1330;-72
2022/09/19 14:23:33;;;;;;;;;;;;;;;25.97;21.50;99398.47;4955171;29;1911;-70
2022/09/19 14:26:00;;;;;;;;;;;;;;;25.92;21.23;99394.34;4955316;29;825;-70
2022/09/19 14:28:42;;;;;;;;;;;;;;;25.89;21.72;99391.81;4937706;29;1162;-69
2022/09/19 14:31:15;;;;;;;;;;;;;;;26.15;21.34;99385.78;4955286;29;934;-70
2022/09/19 14:33:42;;;;;;;;;;;;;;;25.71;21.65;99381.78;4954623;28;1251;-69
2022/09/19 14:36:28;;;;;;;;;;;;;;;25.12;22.53;99387.22;4954892;29;884;-69
2022/09/19 14:38:58;;;;;;;;;;;;;;;24.68;23.41;99390.75;4954724;29;1185;-69
2022/09/19 14:41:30;;;;;;;;;;;;;;;24.48;23.50;99380.41;4954683;29;1903;-70
2022/09/19 14:44:22;;;;;;;;;;;;;;;24.45;23.18;99387.84;4954801;29;813;-68
2022/09/19 14:46:58;;;;;;;;;;;;;;;24.52;23.38;99390.22;4954614;28;833;-68
2022/09/19 14:49:36;;;;;;;;;;;;;;;24.68;23.28;99397.16;4954624;29;912;-69
2022/09/19 14:52:11;;;;;;;;;;;;;;;24.74;23.23;99392.31;4954513;29;921;-69
2022/09/19 14:54:40;;;;;;;;;;;;;;;24.88;23.35;99390.53;4954496;29;789;-69
2022/09/19 14:57:20;;;;;;;;;;;;;;;24.92;23.41;99387.44;4954480;29;845;-69
2022/09/19 14:59:48;;;;;;;;;;;;;;;24.91;23.33;99394.41;4954323;29;875;-68
2022/09/19 15:02:25;;;;;;;;;;;;;;;24.74;23.02;99389.47;4937084;29;1894;-68
2022/09/19 15:04:58;;;;;;;;;;;;;;;24.66;23.01;99394.09;4954262;29;813;-68
2022/09/19 15:07:31;;;;;;;;;;;;;;;24.45;23.13;99390.66;4954324;29;832;-68
2022/09/19 15:09:59;;;;;;;;;;;;;;;24.25;23.59;99392.38;4954240;29;836;-68
2022/09/19 15:12:30;;;;;;;;;;;;;;;23.98;23.83;99388.19;4954369;29;1207;-68
2022/09/19 15:14:56;;;;;;;;;;;;;;;23.37;24.54;99386.47;4954179;29;900;-67
2022/09/19 15:17:28;;;;;;;;;;;;;;;22.90;25.17;99387.84;4954046;29;896;-67
2022/09/19 15:19:56;;;;;;;;;;;;;;;22.52;26.08;99390.53;4954139;29;813;-67
2022/09/19 15:22:30;;;;;;;;;;;;;;;22.21;26.46;99386.31;4953847;29;1918;-66
2022/09/19 15:24:59;;;;;;;;;;;;;;;21.94;26.59;99389.56;4954051;29;836;-67
2022/09/19 15:27:27;;;;;;;;;;;;;;;21.74;27.29;99379.84;4953946;29;853;-66
2022/09/19 15:29:54;;;;;;;;;;;;;;;21.57;27.67;99373.16;4953884;29;868;-66
2022/09/19 15:32:31;;;;;;;;;;;;;;;21.39;27.78;99383.38;4954297;29;1051;-66
2022/09/19 15:34:58;;;;;;;;;;;;;;;21.19;28.27;99374.88;4953602;28;1409;-66
2022/09/19 15:37:26;;;;;;;;;;;;;;;21.01;28.61;99382.22;4953811;29;892;-66
2022/09/19 15:39:53;;;;;;;;;;;;;;;20.82;29.11;99386.50;4953782;29;924;-66
2022/09/19 15:42:20;;;;;;;;;;;;;;;20.63;29.55;99379.50;4953719;29;1918;-66
2022/09/19 15:44:47;;;;;;;;;;;;;;;20.43;30.35;99382.94;4952390;29;858;-66
2022/09/19 15:47:26;;;;;;;;;;;;;;;20.09;32.04;99388.63;4953730;29;864;-66
2022/09/19 15:49:57;;;;;;;;;;;;;;;19.70;34.77;99399.03;4953855;29;833;-66
2022/09/19 15:52:31;;;;;;;;;;;;;;;19.27;36.81;99387.03;4953541;29;794;-66
2022/09/19 15:55:00;;;;;;;;;;;;;;;18.93;38.56;99405.78;4953584;29;845;-66
2022/09/19 15:57:31;;;;;;;;;;;;;;;18.65;39.99;99389.00;4953521;29;888;-66
2022/09/19 16:00:13;;;;;;;;;;;;;;;18.38;41.43;99397.41;4953362;28;825;-66
2022/09/19 16:02:45;;;;;;;;;;;;;;;18.04;42.30;99394.41;4953432;29;1883;-66
2022/09/19 16:05:19;;;;;;;;;;;;;;;17.88;43.17;99394.69;4953536;29;832;-66
2022/09/19 16:10:38;;;;;;;;;;;;;;;17.24;45.84;99398.81;4953760;29;643;-66
2022/09/19 16:13:26;;;;;;;;;;;;;;;16.91;46.58;99404.03;4953386;29;884;-66
2022/09/19 16:15:53;;;;;;;;;;;;;;;16.67;47.46;99406.50;4946668;29;1253;-66
2022/09/19 16:18:20;;;;;;;;;;;;;;;16.50;47.85;99405.91;4953393;29;896;-66
2022/09/19 16:20:52;;;;;;;;;;;;;;;16.31;48.69;99408.53;4953434;29;852;-65
2022/09/19 16:23:21;;;;;;;;;;;;;;;16.11;49.21;99411.59;4953269;29;1890;-65
2022/09/19 16:25:49;;;;;;;;;;;;;;;15.96;50.30;99406.94;4953286;29;888;-66
2022/09/19 16:28:18;;;;;;;;;;;;;;;15.74;51.36;99406.88;4953285;29;908;-65
2022/09/19 16:30:53;;;;;;;;;;;;;;;15.46;52.51;99398.94;4935946;29;1322;-66
2022/09/19 16:33:20;;;;;;;;;;;;;;;15.18;53.20;99397.81;4952944;29;1126;-66
2022/09/19 16:35:54;;;;;;;;;;;;;;;14.91;54.04;99403.78;4953287;29;861;-66
2022/09/19 16:38:25;;;;;;;;;;;;;;;14.70;54.66;99408.75;4953114;29;925;-66
2022/09/19 16:41:02;;;;;;;;;;;;;;;14.47;55.81;99418.09;4953157;29;881;-66
2022/09/19 16:43:39;;;;;;;;;;;;;;;14.25;56.63;99422.63;4935841;29;1910;-65
2022/09/19 16:46:08;;;;;;;;;;;;;;;14.19;56.99;99424.38;4953104;29;820;-66
2022/09/19 16:48:35;;;;;;;;;;;;;;;14.17;57.29;99419.28;4953269;29;801;-66
2022/09/19 16:51:02;;;;;;;;;;;;;;;14.18;57.57;99429.16;4952924;29;891;-66
2022/09/19 16:53:29;;;;;;;;;;;;;;;14.06;57.97;99427.88;4953058;29;852;-66
2022/09/19 16:55:56;;;;;;;;;;;;;;;13.97;58.75;99426.94;4953068;29;903;-65
2022/09/19 16:58:23;;;;;;;;;;;;;;;13.95;59.13;99432.13;4952962;29;809;-66
2022/09/19 17:00:50;;;;;;;;;;;;;;;13.89;59.43;99443.78;4952973;29;843;-66
2022/09/19 17:03:17;;;;;;;;;;;;;;;13.85;59.72;99445.09;4953135;29;1891;-66
2022/09/19 17:05:44;;;;;;;;;;;;;;;13.85;59.86;99448.63;4953207;29;849;-66
2022/09/19 17:08:12;;;;;;;;;;;;;;;13.90;60.07;99452.88;4951574;29;1285;-66
2022/09/19 17:10:40;;;;;;;;;;;;;;;13.84;59.90;99455.38;4953337;28;892;-66
2022/09/19 17:13:10;;;;;;;;;;;;;;;13.80;60.69;99448.34;4956405;29;833;-66
2022/09/19 17:15:42;;;;;;;;;;;;;;;13.76;60.74;99447.66;4956329;29;833;-66
2022/09/19 17:18:09;;;;;;;;;;;;;;;13.80;61.45;99449.13;4956338;29;852;-66
2022/09/19 17:20:37;;;;;;;;;;;;;;;13.81;61.55;99456.28;4956126;29;821;-66
2022/09/19 17:23:05;;;;;;;;;;;;;;;13.76;61.92;99456.00;4956192;29;1887;-66
2022/09/19 17:25:31;;;;;;;;;;;;;;;13.66;62.49;99455.81;4956108;29;892;-66
2022/09/19 17:27:58;;;;;;;;;;;;;;;13.58;62.71;99451.63;4956139;29;837;-66
2022/09/19 17:30:25;;;;;;;;;;;;;;;13.51;63.84;99448.25;4955991;29;907;-66
2022/09/19 17:32:52;;;;;;;;;;;;;;;13.46;63.96;99457.84;4954798;29;1190;-66
2022/09/19 17:35:19;;;;;;;;;;;;;;;13.40;64.45;99460.38;4955828;28;1455;-67
2022/09/19 17:37:45;;;;;;;;;;;;;;;13.32;65.06;99463.75;4955927;29;830;-67
2022/09/19 17:40:13;;;;;;;;;;;;;;;13.28;65.34;99464.59;4955902;29;825;-67
2022/09/19 17:42:40;;;;;;;;;;;;;;;13.31;65.90;99465.72;4954487;29;1935;-67
2022/09/19 17:45:08;;;;;;;;;;;;;;;13.35;66.56;99479.53;4956112;29;881;-67
2022/09/19 17:47:35;;;;;;;;;;;;;;;13.44;66.59;99477.75;4956033;29;805;-67
2022/09/19 17:50:02;;;;;;;;;;;;;;;13.44;66.75;99474.16;4955624;29;861;-67
2022/09/19 17:52:29;;;;;;;;;;;;;;;13.39;66.76;99478.22;4955672;29;861;-66
2022/09/19 17:54:56;;;;;;;;;;;;;;;13.31;67.50;99476.03;4955750;29;864;-66
2022/09/19 17:57:22;;;;;;;;;;;;;;;13.24;67.36;99472.16;4955573;29;818;-66
2022/09/19 17:59:49;;;;;;;;;;;;;;;13.17;68.29;99472.31;4955621;29;833;-67
2022/09/19 18:05:01;;;;;;;;;;;;;;;13.08;69.30;99480.47;4955747;29;647;-67
2022/09/19 18:07:28;;;;;;;;;;;;;;;13.09;69.01;99484.78;4955507;29;829;-66
2022/09/19 18:09:55;;;;;;;;;;;;;;;13.08;69.21;99486.78;4954194;29;1352;-67
2022/09/19 18:12:21;;;;;;;;;;;;;;;13.07;69.70;99481.66;4955517;29;918;-66
2022/09/19 18:14:48;;;;;;;;;;;;;;;13.03;70.05;99487.25;4955567;29;806;-66
2022/09/19 18:17:14;;;;;;;;;;;;;;;13.01;70.68;99478.59;4955500;29;873;-67
2022/09/19 18:19:43;;;;;;;;;;;;;;;12.99;70.55;99486.53;4955450;29;872;-67
2022/09/19 18:22:10;;;;;;;;;;;;;;;12.95;71.44;99479.50;4955118;28;1955;-66
2022/09/19 18:24:36;;;;;;;;;;;;;;;12.93;71.84;99485.50;4938042;29;909;-66
2022/09/19 18:27:03;;;;;;;;;;;;;;;12.92;72.13;99488.69;4955345;29;822;-67
2022/09/19 18:29:31;;;;;;;;;;;;;;;12.90;72.51;99488.34;4955270;29;908;-67
2022/09/19 18:31:57;;;;;;;;;;;;;;;12.84;73.16;99479.72;4955363;29;949;-68
2022/09/19 18:34:25;;;;;;;;;;;;;;;12.77;73.56;99479.88;4954892;28;1295;-67
2022/09/19 18:36:51;;;;;;;;;;;;;;;12.77;74.08;99496.50;4955103;29;828;-67
2022/09/19 18:39:18;;;;;;;;;;;;;;;12.79;74.14;99486.53;4955022;29;864;-67
2022/09/19 18:41:46;;;;;;;;;;;;;;;12.82;74.43;99490.44;4954884;29;1965;-67
2022/09/19 18:44:12;;;;;;;;;;;;;;;12.84;74.05;99488.03;4955030;29;916;-67
2022/09/19 18:46:39;;;;;;;;;;;;;;;12.85;74.11;99484.84;4954893;29;943;-67
2022/09/19 18:49:05;;;;;;;;;;;;;;;12.84;74.74;99474.97;4954802;29;821;-67
2022/09/19 18:51:32;;;;;;;;;;;;;;;12.81;75.07;99478.59;4954892;29;849;-67
2022/09/19 18:53:59;;;;;;;;;;;;;;;12.79;75.46;99485.78;4955213;29;766;-67
2022/09/19 18:56:27;;;;;;;;;;;;;;;12.76;75.71;99475.50;4954842;29;842;-67
2022/09/19 18:58:54;;;;;;;;;;;;;;;12.73;76.20;99477.16;4955068;29;801;-67
2022/09/19 19:01:22;;;;;;;;;;;;;;;12.69;76.34;99472.88;4954661;29;1949;-67
2022/09/19 19:03:52;;;;;;;;;;;;;;;12.61;76.71;99486.09;4954367;29;821;-67
2022/09/19 19:06:19;;;;;;;;;;;;;;;12.52;77.41;99481.09;4937108;29;1194;-67
2022/09/19 19:08:46;;;;;;;;;;;;;;;12.48;77.62;99479.59;4954326;29;848;-67
2022/09/19 19:11:15;;;;;;;;;;;;;;;12.41;77.66;99478.50;4954207;29;891;-67
2022/09/19 19:13:41;;;;;;;;;;;;;;;12.37;78.49;99477.78;4954232;29;868;-67
2022/09/19 19:16:15;;;;;;;;;;;;;;;12.38;78.89;99482.16;4954378;29;841;-67
2022/09/19 19:18:41;;;;;;;;;;;;;;;12.39;79.24;99480.94;4954079;29;801;-66
2022/09/19 19:21:12;;;;;;;;;;;;;;;12.36;79.28;99476.25;4954099;29;813;-66
2022/09/19 19:23:39;;;;;;;;;;;;;;;12.30;79.64;99475.16;4953992;29;1899;-66
2022/09/19 19:26:06;;;;;;;;;;;;;;;12.31;80.24;99473.16;4953942;29;887;-67
2022/09/19 19:28:34;;;;;;;;;;;;;;;12.31;80.40;99473.16;4953977;29;832;-66